sensor_id;sensor_type;location;lat;lon;timestamp;temperature;humidity
19037;DHT22;9651;49.138;8.900;2023-01-23T00:03:23;2.10;99.90
19037;DHT22;9651;49.138;8.900;2023-01-23T00:07:27;2.10;99.90
19037;DHT22;9651;49.138;8.900;2023-01-23T00:11:29;2.10;99.90
19037;DHT22;9651;49.138;8.900;2023-01-23T00:15:31;2.10;99.90
19037;DHT22;9651;49.138;8.900;2023-01-23T00:19:33;2.10;99.90
19037;DHT22;9651;49.138;8.900;2023-01-23T00:23:37;2.10;99.90
19037;DHT22;9651;49.138;8.900;2023-01-23T00:27:39;2.10;99.90
19037;DHT22;9651;49.138;8.900;2023-01-23T00:31:41;2.10;99.90
19037;DHT22;9651;49.138;8.900;2023-01-23T00:35:43;2.20;99.90
19037;DHT22;9651;49.138;8.900;2023-01-23T00:39:46;2.10;99.90
19037;DHT22;9651;49.138;8.900;2023-01-23T00:43:50;2.20;99.90
19037;DHT22;9651;49.138;8.900;2023-01-23T00:47:52;2.20;99.90
19037;DHT22;9651;49.138;8.900;2023-01-23T00:51:54;2.20;99.90
19037;DHT22;9651;49.138;8.900;2023-01-23T00:55:58;2.10;99.90
19037;DHT22;9651;49.138;8.900;2023-01-23T01:00:00;2.10;99.90
19037;DHT22;9651;49.138;8.900;2023-01-23T01:04:03;2.10;99.90
19037;DHT22;9651;49.138;8.900;2023-01-23T01:08:05;2.10;99.90
19037;DHT22;9651;49.138;8.900;2023-01-23T01:12:08;2.10;99.90
19037;DHT22;9651;49.138;8.900;2023-01-23T01:16:12;2.00;99.90
19037;DHT22;9651;49.138;8.900;2023-01-23T01:20:14;2.00;99.90
19037;DHT22;9651;49.138;8.900;2023-01-23T01:24:16;2.10;99.90
19037;DHT22;9651;49.138;8.900;2023-01-23T01:28:19;2.10;99.90
19037;DHT22;9651;49.138;8.900;2023-01-23T01:32:21;2.10;99.90
19037;DHT22;9651;49.138;8.900;2023-01-23T01:36:23;2.10;99.90
19037;DHT22;9651;49.138;8.900;2023-01-23T01:40:32;2.10;99.90
19037;DHT22;9651;49.138;8.900;2023-01-23T01:44:52;2.10;99.90
19037;DHT22;9651;49.138;8.900;2023-01-23T01:49:01;2.10;99.90
19037;DHT22;9651;49.138;8.900;2023-01-23T01:53:05;2.00;99.90
19037;DHT22;9651;49.138;8.900;2023-01-23T01:57:11;2.10;99.90
19037;DHT22;9651;49.138;8.900;2023-01-23T02:01:17;2.00;99.90
19037;DHT22;9651;49.138;8.900;2023-01-23T02:05:21;2.00;99.90
19037;DHT22;9651;49.138;8.900;2023-01-23T02:09:25;2.00;99.90
19037;DHT22;9651;49.138;8.900;2023-01-23T02:13:29;2.00;99.90
19037;DHT22;9651;49.138;8.900;2023-01-23T02:17:35;2.00;99.90
19037;DHT22;9651;49.138;8.900;2023-01-23T02:21:37;1.90;99.90
19037;DHT22;9651;49.138;8.900;2023-01-23T02:25:49;1.90;99.90
19037;DHT22;9651;49.138;8.900;2023-01-23T02:29:53;1.90;99.90
19037;DHT22;9651;49.138;8.900;2023-01-23T02:33:58;1.90;99.90
19037;DHT22;9651;49.138;8.900;2023-01-23T02:38:03;2.00;99.90
19037;DHT22;9651;49.138;8.900;2023-01-23T02:42:07;1.90;99.90
19037;DHT22;9651;49.138;8.900;2023-01-23T02:46:23;1.90;99.90
19037;DHT22;9651;49.138;8.900;2023-01-23T02:50:25;2.00;99.90
19037;DHT22;9651;49.138;8.900;2023-01-23T02:54:27;2.00;99.90
19037;DHT22;9651;49.138;8.900;2023-01-23T02:58:30;1.90;99.90
19037;DHT22;9651;49.138;8.900;2023-01-23T03:02:49;2.00;99.90
19037;DHT22;9651;49.138;8.900;2023-01-23T03:06:51;2.00;99.90
19037;DHT22;9651;49.138;8.900;2023-01-23T03:10:53;2.00;99.90
19037;DHT22;9651;49.138;8.900;2023-01-23T03:14:58;2.00;99.90
19037;DHT22;9651;49.138;8.900;2023-01-23T03:19:00;2.00;99.90
19037;DHT22;9651;49.138;8.900;2023-01-23T03:23:05;2.00;99.90
19037;DHT22;9651;49.138;8.900;2023-01-23T03:27:07;2.00;99.90
19037;DHT22;9651;49.138;8.900;2023-01-23T03:31:21;2.00;99.90
19037;DHT22;9651;49.138;8.900;2023-01-23T03:35:23;1.90;99.90
19037;DHT22;9651;49.138;8.900;2023-01-23T03:39:28;1.90;99.90
19037;DHT22;9651;49.138;8.900;2023-01-23T03:43:48;2.00;99.90
19037;DHT22;9651;49.138;8.900;2023-01-23T03:47:52;1.90;99.90
19037;DHT22;9651;49.138;8.900;2023-01-23T03:51:54;2.00;99.90
19037;DHT22;9651;49.138;8.900;2023-01-23T03:55:56;1.90;99.90
19037;DHT22;9651;49.138;8.900;2023-01-23T03:59:59;2.00;99.90
19037;DHT22;9651;49.138;8.900;2023-01-23T04:04:15;1.90;99.90
19037;DHT22;9651;49.138;8.900;2023-01-23T04:08:17;1.90;99.90
19037;DHT22;9651;49.138;8.900;2023-01-23T04:12:19;1.90;99.90
19037;DHT22;9651;49.138;8.900;2023-01-23T04:16:22;1.90;99.90
19037;DHT22;9651;49.138;8.900;2023-01-23T04:20:26;1.90;99.90
19037;DHT22;9651;49.138;8.900;2023-01-23T04:24:29;1.90;99.90
19037;DHT22;9651;49.138;8.900;2023-01-23T04:28:31;1.90;99.90
19037;DHT22;9651;49.138;8.900;2023-01-23T04:32:33;1.90;99.90
19037;DHT22;9651;49.138;8.900;2023-01-23T04:36:36;1.90;99.90
19037;DHT22;9651;49.138;8.900;2023-01-23T04:40:39;1.90;99.90
19037;DHT22;9651;49.138;8.900;2023-01-23T04:44:41;1.90;99.90
19037;DHT22;9651;49.138;8.900;2023-01-23T04:49:02;1.80;99.90
19037;DHT22;9651;49.138;8.900;2023-01-23T04:53:05;1.90;99.90
19037;DHT22;9651;49.138;8.900;2023-01-23T04:57:08;1.80;99.90
19037;DHT22;9651;49.138;8.900;2023-01-23T05:01:10;1.90;99.90
19037;DHT22;9651;49.138;8.900;2023-01-23T05:05:12;1.90;99.90
19037;DHT22;9651;49.138;8.900;2023-01-23T05:09:15;1.90;99.90
19037;DHT22;9651;49.138;8.900;2023-01-23T05:13:24;2.00;99.90
19037;DHT22;9651;49.138;8.900;2023-01-23T05:17:26;2.00;99.90
19037;DHT22;9651;49.138;8.900;2023-01-23T05:21:28;2.00;99.90
19037;DHT22;9651;49.138;8.900;2023-01-23T05:25:32;1.90;99.90
19037;DHT22;9651;49.138;8.900;2023-01-23T05:29:34;1.90;99.90
19037;DHT22;9651;49.138;8.900;2023-01-23T05:33:42;1.80;99.90
19037;DHT22;9651;49.138;8.900;2023-01-23T05:37:48;1.80;99.90
19037;DHT22;9651;49.138;8.900;2023-01-23T05:41:53;1.70;99.90
19037;DHT22;9651;49.138;8.900;2023-01-23T05:45:58;1.70;99.90
19037;DHT22;9651;49.138;8.900;2023-01-23T05:50:08;1.70;99.90
19037;DHT22;9651;49.138;8.900;2023-01-23T05:54:13;1.70;99.90
19037;DHT22;9651;49.138;8.900;2023-01-23T05:58:21;1.70;99.90
19037;DHT22;9651;49.138;8.900;2023-01-23T06:02:55;1.70;99.90
19037;DHT22;9651;49.138;8.900;2023-01-23T06:07:17;1.70;99.90
19037;DHT22;9651;49.138;8.900;2023-01-23T06:11:21;1.70;99.90
19037;DHT22;9651;49.138;8.900;2023-01-23T06:15:25;1.70;99.90
19037;DHT22;9651;49.138;8.900;2023-01-23T06:19:29;1.70;99.90
19037;DHT22;9651;49.138;8.900;2023-01-23T06:23:31;1.70;99.90
19037;DHT22;9651;49.138;8.900;2023-01-23T06:27:36;1.70;99.90
19037;DHT22;9651;49.138;8.900;2023-01-23T06:31:43;1.70;99.90
19037;DHT22;9651;49.138;8.900;2023-01-23T06:35:45;1.70;99.90
19037;DHT22;9651;49.138;8.900;2023-01-23T06:39:47;1.70;99.90
19037;DHT22;9651;49.138;8.900;2023-01-23T06:43:50;1.70;99.90
19037;DHT22;9651;49.138;8.900;2023-01-23T06:47:58;1.70;99.90
19037;DHT22;9651;49.138;8.900;2023-01-23T06:52:01;1.60;99.90
19037;DHT22;9651;49.138;8.900;2023-01-23T06:56:05;1.50;99.90
19037;DHT22;9651;49.138;8.900;2023-01-23T07:00:11;1.60;99.90
19037;DHT22;9651;49.138;8.900;2023-01-23T07:04:15;1.50;99.90
19037;DHT22;9651;49.138;8.900;2023-01-23T07:08:20;1.60;99.90
19037;DHT22;9651;49.138;8.900;2023-01-23T07:12:27;1.60;99.90
19037;DHT22;9651;49.138;8.900;2023-01-23T07:16:29;1.70;99.90
19037;DHT22;9651;49.138;8.900;2023-01-23T07:20:32;1.70;99.90
19037;DHT22;9651;49.138;8.900;2023-01-23T07:24:35;1.60;99.90
19037;DHT22;9651;49.138;8.900;2023-01-23T07:28:38;1.70;99.90
19037;DHT22;9651;49.138;8.900;2023-01-23T07:32:40;1.70;99.90
19037;DHT22;9651;49.138;8.900;2023-01-23T07:36:43;1.70;99.90
19037;DHT22;9651;49.138;8.900;2023-01-23T07:40:45;1.70;99.90
19037;DHT22;9651;49.138;8.900;2023-01-23T07:44:47;1.70;99.90
19037;DHT22;9651;49.138;8.900;2023-01-23T07:48:49;1.80;99.90
19037;DHT22;9651;49.138;8.900;2023-01-23T07:52:52;1.80;99.90
19037;DHT22;9651;49.138;8.900;2023-01-23T07:56:54;1.80;99.90
19037;DHT22;9651;49.138;8.900;2023-01-23T08:00:55;1.80;99.90
19037;DHT22;9651;49.138;8.900;2023-01-23T08:04:57;1.80;99.90
19037;DHT22;9651;49.138;8.900;2023-01-23T08:09:00;2.00;99.90
19037;DHT22;9651;49.138;8.900;2023-01-23T08:13:02;2.00;99.90
19037;DHT22;9651;49.138;8.900;2023-01-23T08:17:04;2.10;99.90
19037;DHT22;9651;49.138;8.900;2023-01-23T08:21:06;2.20;99.90
19037;DHT22;9651;49.138;8.900;2023-01-23T08:25:10;2.20;99.90
19037;DHT22;9651;49.138;8.900;2023-01-23T08:29:12;2.20;99.90
19037;DHT22;9651;49.138;8.900;2023-01-23T08:33:14;2.20;99.90
19037;DHT22;9651;49.138;8.900;2023-01-23T08:37:16;2.30;99.90
19037;DHT22;9651;49.138;8.900;2023-01-23T08:41:20;2.20;99.90
19037;DHT22;9651;49.138;8.900;2023-01-23T08:45:22;2.20;99.90
19037;DHT22;9651;49.138;8.900;2023-01-23T08:49:25;2.30;99.90
19037;DHT22;9651;49.138;8.900;2023-01-23T08:53:27;2.40;99.90
19037;DHT22;9651;49.138;8.900;2023-01-23T08:57:30;2.50;99.90
19037;DHT22;9651;49.138;8.900;2023-01-23T09:01:32;2.60;99.90
19037;DHT22;9651;49.138;8.900;2023-01-23T09:05:34;2.60;99.90
19037;DHT22;9651;49.138;8.900;2023-01-23T09:09:36;2.50;99.90
19037;DHT22;9651;49.138;8.900;2023-01-23T09:13:40;2.50;99.90
19037;DHT22;9651;49.138;8.900;2023-01-23T09:17:42;2.70;99.90
19037;DHT22;9651;49.138;8.900;2023-01-23T09:21:44;2.70;99.90
19037;DHT22;9651;49.138;8.900;2023-01-23T09:25:46;2.90;99.90
19037;DHT22;9651;49.138;8.900;2023-01-23T09:29:49;2.90;99.90
19037;DHT22;9651;49.138;8.900;2023-01-23T09:33:51;2.90;99.90
19037;DHT22;9651;49.138;8.900;2023-01-23T09:37:53;2.90;99.90
19037;DHT22;9651;49.138;8.900;2023-01-23T09:42:02;2.80;99.90
19037;DHT22;9651;49.138;8.900;2023-01-23T09:46:15;2.70;99.90
19037;DHT22;9651;49.138;8.900;2023-01-23T09:50:23;2.80;99.90
19037;DHT22;9651;49.138;8.900;2023-01-23T09:54:32;2.90;99.90
19037;DHT22;9651;49.138;8.900;2023-01-23T09:58:38;2.70;99.90
19037;DHT22;9651;49.138;8.900;2023-01-23T10:02:44;2.70;99.90
19037;DHT22;9651;49.138;8.900;2023-01-23T10:07:26;2.80;99.90
19037;DHT22;9651;49.138;8.900;2023-01-23T10:11:38;2.80;99.90
19037;DHT22;9651;49.138;8.900;2023-01-23T10:16:00;2.90;99.90
19037;DHT22;9651;49.138;8.900;2023-01-23T10:24:42;2.70;99.90
19037;DHT22;9651;49.138;8.900;2023-01-23T10:28:46;2.70;99.90
19037;DHT22;9651;49.138;8.900;2023-01-23T10:32:51;2.80;99.90
19037;DHT22;9651;49.138;8.900;2023-01-23T10:37:06;2.90;99.90
19037;DHT22;9651;49.138;8.900;2023-01-23T10:41:13;2.90;99.90
19037;DHT22;9651;49.138;8.900;2023-01-23T10:45:20;2.90;99.90
19037;DHT22;9651;49.138;8.900;2023-01-23T10:49:31;2.90;99.90
19037;DHT22;9651;49.138;8.900;2023-01-23T10:53:34;2.90;99.90
19037;DHT22;9651;49.138;8.900;2023-01-23T10:57:43;3.00;99.90
19037;DHT22;9651;49.138;8.900;2023-01-23T11:01:56;3.20;99.90
19037;DHT22;9651;49.138;8.900;2023-01-23T11:06:04;3.20;99.90
19037;DHT22;9651;49.138;8.900;2023-01-23T11:10:19;3.10;99.90
19037;DHT22;9651;49.138;8.900;2023-01-23T11:14:22;3.00;99.90
19037;DHT22;9651;49.138;8.900;2023-01-23T11:18:30;3.10;99.90
19037;DHT22;9651;49.138;8.900;2023-01-23T11:22:36;3.30;99.90
19037;DHT22;9651;49.138;8.900;2023-01-23T11:26:39;3.00;99.90
19037;DHT22;9651;49.138;8.900;2023-01-23T11:30:44;3.00;99.90
19037;DHT22;9651;49.138;8.900;2023-01-23T11:34:49;3.10;99.90
19037;DHT22;9651;49.138;8.900;2023-01-23T11:38:55;3.10;99.90
19037;DHT22;9651;49.138;8.900;2023-01-23T11:42:59;3.30;99.90
19037;DHT22;9651;49.138;8.900;2023-01-23T11:51:33;3.60;99.90
19037;DHT22;9651;49.138;8.900;2023-01-23T11:55:56;3.70;99.90
19037;DHT22;9651;49.138;8.900;2023-01-23T12:00:09;3.80;99.90
19037;DHT22;9651;49.138;8.900;2023-01-23T12:08:51;3.70;99.90
19037;DHT22;9651;49.138;8.900;2023-01-23T12:13:17;3.70;99.90
19037;DHT22;9651;49.138;8.900;2023-01-23T12:17:37;3.90;99.90
19037;DHT22;9651;49.138;8.900;2023-01-23T12:21:46;4.20;99.90
19037;DHT22;9651;49.138;8.900;2023-01-23T12:25:57;4.40;99.90
19037;DHT22;9651;49.138;8.900;2023-01-23T12:30:25;4.50;99.90
19037;DHT22;9651;49.138;8.900;2023-01-23T12:34:56;4.40;99.90
19037;DHT22;9651;49.138;8.900;2023-01-23T12:39:08;4.20;99.90
19037;DHT22;9651;49.138;8.900;2023-01-23T12:43:20;4.00;99.90
19037;DHT22;9651;49.138;8.900;2023-01-23T12:47:32;3.80;99.90
19037;DHT22;9651;49.138;8.900;2023-01-23T12:51:38;3.70;99.90
19037;DHT22;9651;49.138;8.900;2023-01-23T12:55:49;3.50;99.90
19037;DHT22;9651;49.138;8.900;2023-01-23T12:59:57;3.60;99.90
19037;DHT22;9651;49.138;8.900;2023-01-23T13:04:11;3.60;99.90
19037;DHT22;9651;49.138;8.900;2023-01-23T13:08:22;3.60;99.90
19037;DHT22;9651;49.138;8.900;2023-01-23T13:12:29;3.60;99.90
19037;DHT22;9651;49.138;8.900;2023-01-23T13:16:32;3.60;99.90
19037;DHT22;9651;49.138;8.900;2023-01-23T13:20:55;3.60;99.90
19037;DHT22;9651;49.138;8.900;2023-01-23T13:25:18;3.60;99.90
19037;DHT22;9651;49.138;8.900;2023-01-23T13:29:48;3.70;99.90
19037;DHT22;9651;49.138;8.900;2023-01-23T13:33:50;3.70;99.90
19037;DHT22;9651;49.138;8.900;2023-01-23T13:37:53;3.70;99.90
19037;DHT22;9651;49.138;8.900;2023-01-23T13:42:34;3.60;99.90
19037;DHT22;9651;49.138;8.900;2023-01-23T13:46:43;3.60;99.90
19037;DHT22;9651;49.138;8.900;2023-01-23T13:50:51;3.70;99.90
19037;DHT22;9651;49.138;8.900;2023-01-23T13:54:54;3.90;99.90
19037;DHT22;9651;49.138;8.900;2023-01-23T13:59:24;4.00;99.90
19037;DHT22;9651;49.138;8.900;2023-01-23T14:03:29;4.20;99.90
19037;DHT22;9651;49.138;8.900;2023-01-23T14:07:50;4.30;99.90
19037;DHT22;9651;49.138;8.900;2023-01-23T14:12:01;4.30;99.90
19037;DHT22;9651;49.138;8.900;2023-01-23T14:16:12;4.40;99.90
19037;DHT22;9651;49.138;8.900;2023-01-23T14:20:21;4.50;99.90
19037;DHT22;9651;49.138;8.900;2023-01-23T14:24:25;4.50;99.90
19037;DHT22;9651;49.138;8.900;2023-01-23T14:28:28;4.60;99.90
19037;DHT22;9651;49.138;8.900;2023-01-23T14:32:33;4.50;99.90
19037;DHT22;9651;49.138;8.900;2023-01-23T14:36:35;4.40;99.90
19037;DHT22;9651;49.138;8.900;2023-01-23T14:40:40;4.40;99.90
19037;DHT22;9651;49.138;8.900;2023-01-23T14:44:44;4.30;99.90
19037;DHT22;9651;49.138;8.900;2023-01-23T14:48:51;4.10;99.90
19037;DHT22;9651;49.138;8.900;2023-01-23T14:53:00;4.00;99.90
19037;DHT22;9651;49.138;8.900;2023-01-23T14:57:03;4.00;99.90
19037;DHT22;9651;49.138;8.900;2023-01-23T15:01:09;3.90;99.90
19037;DHT22;9651;49.138;8.900;2023-01-23T15:05:20;3.90;99.90
19037;DHT22;9651;49.138;8.900;2023-01-23T15:09:26;3.90;99.90
19037;DHT22;9651;49.138;8.900;2023-01-23T15:13:34;3.70;99.90
19037;DHT22;9651;49.138;8.900;2023-01-23T15:17:41;3.70;99.90
19037;DHT22;9651;49.138;8.900;2023-01-23T15:21:45;3.70;99.90
19037;DHT22;9651;49.138;8.900;2023-01-23T15:25:47;3.60;99.90
19037;DHT22;9651;49.138;8.900;2023-01-23T15:29:49;3.40;99.90
19037;DHT22;9651;49.138;8.900;2023-01-23T15:33:52;3.40;99.90
19037;DHT22;9651;49.138;8.900;2023-01-23T15:37:55;3.40;99.90
19037;DHT22;9651;49.138;8.900;2023-01-23T15:42:00;3.40;99.90
19037;DHT22;9651;49.138;8.900;2023-01-23T15:46:02;3.30;99.90
19037;DHT22;9651;49.138;8.900;2023-01-23T15:50:05;3.30;99.90
19037;DHT22;9651;49.138;8.900;2023-01-23T15:54:13;3.30;99.90
19037;DHT22;9651;49.138;8.900;2023-01-23T15:58:15;3.30;99.90
19037;DHT22;9651;49.138;8.900;2023-01-23T16:02:19;3.30;99.90
19037;DHT22;9651;49.138;8.900;2023-01-23T16:06:22;3.40;99.90
19037;DHT22;9651;49.138;8.900;2023-01-23T16:10:28;3.40;99.90
19037;DHT22;9651;49.138;8.900;2023-01-23T16:14:30;3.50;99.90
19037;DHT22;9651;49.138;8.900;2023-01-23T16:18:32;3.50;99.90
19037;DHT22;9651;49.138;8.900;2023-01-23T16:22:34;3.50;99.90
19037;DHT22;9651;49.138;8.900;2023-01-23T16:26:38;3.50;99.90
19037;DHT22;9651;49.138;8.900;2023-01-23T16:30:40;3.40;99.90
19037;DHT22;9651;49.138;8.900;2023-01-23T16:34:42;3.50;99.90
19037;DHT22;9651;49.138;8.900;2023-01-23T16:38:48;3.50;99.90
19037;DHT22;9651;49.138;8.900;2023-01-23T16:42:52;3.50;99.90
19037;DHT22;9651;49.138;8.900;2023-01-23T16:46:55;3.40;99.90
19037;DHT22;9651;49.138;8.900;2023-01-23T16:50:59;3.60;99.90
19037;DHT22;9651;49.138;8.900;2023-01-23T16:55:04;3.70;99.90
19037;DHT22;9651;49.138;8.900;2023-01-23T16:59:15;3.70;99.90
19037;DHT22;9651;49.138;8.900;2023-01-23T17:03:21;3.60;99.90
19037;DHT22;9651;49.138;8.900;2023-01-23T17:07:23;3.60;99.90
19037;DHT22;9651;49.138;8.900;2023-01-23T17:11:28;3.50;99.90
19037;DHT22;9651;49.138;8.900;2023-01-23T17:15:32;3.50;99.90
19037;DHT22;9651;49.138;8.900;2023-01-23T17:19:36;3.40;99.90
19037;DHT22;9651;49.138;8.900;2023-01-23T17:23:40;3.40;99.90
19037;DHT22;9651;49.138;8.900;2023-01-23T17:27:42;3.50;99.90
19037;DHT22;9651;49.138;8.900;2023-01-23T17:31:46;3.40;99.90
19037;DHT22;9651;49.138;8.900;2023-01-23T17:35:49;3.40;99.90
19037;DHT22;9651;49.138;8.900;2023-01-23T17:39:51;3.40;99.90
19037;DHT22;9651;49.138;8.900;2023-01-23T17:43:53;3.40;99.90
19037;DHT22;9651;49.138;8.900;2023-01-23T17:47:56;3.40;99.90
19037;DHT22;9651;49.138;8.900;2023-01-23T17:51:59;3.40;99.90
19037;DHT22;9651;49.138;8.900;2023-01-23T17:56:01;3.40;99.90
19037;DHT22;9651;49.138;8.900;2023-01-23T18:00:04;3.50;99.90
19037;DHT22;9651;49.138;8.900;2023-01-23T18:04:14;3.50;99.90
19037;DHT22;9651;49.138;8.900;2023-01-23T18:08:17;3.50;99.90
19037;DHT22;9651;49.138;8.900;2023-01-23T18:12:26;3.60;99.90
19037;DHT22;9651;49.138;8.900;2023-01-23T18:16:33;3.50;99.90
19037;DHT22;9651;49.138;8.900;2023-01-23T18:20:38;3.50;99.90
19037;DHT22;9651;49.138;8.900;2023-01-23T18:24:41;3.50;99.90
19037;DHT22;9651;49.138;8.900;2023-01-23T18:28:47;3.50;99.90
19037;DHT22;9651;49.138;8.900;2023-01-23T18:33:03;3.50;99.90
19037;DHT22;9651;49.138;8.900;2023-01-23T18:37:16;3.50;99.90
19037;DHT22;9651;49.138;8.900;2023-01-23T18:41:21;3.50;99.90
19037;DHT22;9651;49.138;8.900;2023-01-23T18:45:24;3.50;99.90
19037;DHT22;9651;49.138;8.900;2023-01-23T18:49:27;3.50;99.90
19037;DHT22;9651;49.138;8.900;2023-01-23T18:53:39;3.50;99.90
19037;DHT22;9651;49.138;8.900;2023-01-23T18:58:00;3.40;99.90
19037;DHT22;9651;49.138;8.900;2023-01-23T19:02:13;3.50;99.90
19037;DHT22;9651;49.138;8.900;2023-01-23T19:06:20;3.50;99.90
19037;DHT22;9651;49.138;8.900;2023-01-23T19:10:26;3.50;99.90
19037;DHT22;9651;49.138;8.900;2023-01-23T19:14:49;3.50;99.90
19037;DHT22;9651;49.138;8.900;2023-01-23T19:18:57;3.50;99.90
19037;DHT22;9651;49.138;8.900;2023-01-23T19:23:10;3.50;99.90
19037;DHT22;9651;49.138;8.900;2023-01-23T19:27:20;3.50;99.90
19037;DHT22;9651;49.138;8.900;2023-01-23T19:31:24;3.50;99.90
19037;DHT22;9651;49.138;8.900;2023-01-23T19:35:26;3.50;99.90
19037;DHT22;9651;49.138;8.900;2023-01-23T19:39:28;3.50;99.90
19037;DHT22;9651;49.138;8.900;2023-01-23T19:43:31;3.50;99.90
19037;DHT22;9651;49.138;8.900;2023-01-23T19:47:33;3.50;99.90
19037;DHT22;9651;49.138;8.900;2023-01-23T19:51:36;3.60;99.90
19037;DHT22;9651;49.138;8.900;2023-01-23T19:55:38;3.50;99.90
19037;DHT22;9651;49.138;8.900;2023-01-23T19:59:41;3.50;99.90
19037;DHT22;9651;49.138;8.900;2023-01-23T20:03:43;3.50;99.90
19037;DHT22;9651;49.138;8.900;2023-01-23T20:07:45;3.50;99.90
19037;DHT22;9651;49.138;8.900;2023-01-23T20:11:49;3.50;99.90
19037;DHT22;9651;49.138;8.900;2023-01-23T20:15:53;3.50;99.90
19037;DHT22;9651;49.138;8.900;2023-01-23T20:19:54;3.50;99.90
19037;DHT22;9651;49.138;8.900;2023-01-23T20:23:56;3.50;99.90
19037;DHT22;9651;49.138;8.900;2023-01-23T20:27:58;3.50;99.90
19037;DHT22;9651;49.138;8.900;2023-01-23T20:32:01;3.50;99.90
19037;DHT22;9651;49.138;8.900;2023-01-23T20:36:03;3.50;99.90
19037;DHT22;9651;49.138;8.900;2023-01-23T20:40:06;3.50;99.90
19037;DHT22;9651;49.138;8.900;2023-01-23T20:44:10;3.50;99.90
19037;DHT22;9651;49.138;8.900;2023-01-23T20:48:14;3.50;99.90
19037;DHT22;9651;49.138;8.900;2023-01-23T20:52:17;3.50;99.90
19037;DHT22;9651;49.138;8.900;2023-01-23T20:56:36;3.50;99.90
19037;DHT22;9651;49.138;8.900;2023-01-23T21:00:38;3.50;99.90
19037;DHT22;9651;49.138;8.900;2023-01-23T21:04:42;3.50;99.90
19037;DHT22;9651;49.138;8.900;2023-01-23T21:08:45;3.50;99.90
19037;DHT22;9651;49.138;8.900;2023-01-23T21:12:47;3.50;99.90
19037;DHT22;9651;49.138;8.900;2023-01-23T21:16:49;3.50;99.90
19037;DHT22;9651;49.138;8.900;2023-01-23T21:20:53;3.50;99.90
19037;DHT22;9651;49.138;8.900;2023-01-23T21:24:54;3.50;99.90
19037;DHT22;9651;49.138;8.900;2023-01-23T21:28:57;3.40;99.90
19037;DHT22;9651;49.138;8.900;2023-01-23T21:32:59;3.40;99.90
19037;DHT22;9651;49.138;8.900;2023-01-23T21:37:02;3.40;99.90
19037;DHT22;9651;49.138;8.900;2023-01-23T21:41:06;3.40;99.90
19037;DHT22;9651;49.138;8.900;2023-01-23T21:45:09;3.40;99.90
19037;DHT22;9651;49.138;8.900;2023-01-23T21:49:11;3.50;99.90
19037;DHT22;9651;49.138;8.900;2023-01-23T21:53:14;3.40;99.90
19037;DHT22;9651;49.138;8.900;2023-01-23T21:57:16;3.40;99.90
19037;DHT22;9651;49.138;8.900;2023-01-23T22:01:20;3.40;99.90
19037;DHT22;9651;49.138;8.900;2023-01-23T22:05:35;3.40;99.90
19037;DHT22;9651;49.138;8.900;2023-01-23T22:09:38;3.40;99.90
19037;DHT22;9651;49.138;8.900;2023-01-23T22:13:40;3.40;99.90
19037;DHT22;9651;49.138;8.900;2023-01-23T22:17:42;3.30;99.90
19037;DHT22;9651;49.138;8.900;2023-01-23T22:21:45;3.30;99.90
19037;DHT22;9651;49.138;8.900;2023-01-23T22:25:49;3.30;99.90
19037;DHT22;9651;49.138;8.900;2023-01-23T22:29:51;3.20;99.90
19037;DHT22;9651;49.138;8.900;2023-01-23T22:33:54;3.20;99.90
19037;DHT22;9651;49.138;8.900;2023-01-23T22:37:56;3.20;99.90
19037;DHT22;9651;49.138;8.900;2023-01-23T22:41:59;3.20;99.90
19037;DHT22;9651;49.138;8.900;2023-01-23T22:46:04;3.20;99.90
19037;DHT22;9651;49.138;8.900;2023-01-23T22:50:07;3.10;99.90
19037;DHT22;9651;49.138;8.900;2023-01-23T22:54:09;3.10;99.90
19037;DHT22;9651;49.138;8.900;2023-01-23T22:58:12;3.10;99.90
19037;DHT22;9651;49.138;8.900;2023-01-23T23:02:14;3.10;99.90
19037;DHT22;9651;49.138;8.900;2023-01-23T23:06:16;3.10;99.90
19037;DHT22;9651;49.138;8.900;2023-01-23T23:10:19;3.10;99.90
19037;DHT22;9651;49.138;8.900;2023-01-23T23:14:22;3.20;99.90
19037;DHT22;9651;49.138;8.900;2023-01-23T23:18:24;3.10;99.90
19037;DHT22;9651;49.138;8.900;2023-01-23T23:22:26;3.10;99.90
19037;DHT22;9651;49.138;8.900;2023-01-23T23:26:29;3.10;99.90
19037;DHT22;9651;49.138;8.900;2023-01-23T23:30:32;3.10;99.90
19037;DHT22;9651;49.138;8.900;2023-01-23T23:34:34;3.10;99.90
19037;DHT22;9651;49.138;8.900;2023-01-23T23:38:36;3.10;99.90
19037;DHT22;9651;49.138;8.900;2023-01-23T23:42:38;3.10;99.90
19037;DHT22;9651;49.138;8.900;2023-01-23T23:46:42;3.10;99.90
19037;DHT22;9651;49.138;8.900;2023-01-23T23:50:44;3.10;99.90
19037;DHT22;9651;49.138;8.900;2023-01-23T23:54:45;3.00;99.90
19037;DHT22;9651;49.138;8.900;2023-01-23T23:58:48;3.00;99.90
